createdAt,value
2018-07-06T00:00:05.509Z,100971.59
2018-07-06T00:02:52.045Z,100965.98
2018-07-06T00:05:38.277Z,100966.28
2018-07-06T00:08:24.649Z,100967.48
2018-07-06T00:11:10.922Z,100978.16
2018-07-06T00:13:57.261Z,100980.33
2018-07-06T00:16:43.777Z,100976.91
2018-07-06T00:19:30.105Z,100975.16
2018-07-06T00:22:16.416Z,100977.73
2018-07-06T00:25:02.529Z,100980.45
2018-07-06T00:27:48.857Z,100981.13
2018-07-06T00:30:35.363Z,100985.44
2018-07-06T00:33:21.784Z,100984.68
2018-07-06T00:36:07.989Z,100983.47
2018-07-06T00:38:54.211Z,100984.30
2018-07-06T00:41:40.789Z,100983.47
2018-07-06T00:44:27.353Z,100987.84
2018-07-06T00:47:13.625Z,100988.69
2018-07-06T00:50:00.068Z,100988.63
2018-07-06T00:52:46.470Z,100993.11
2018-07-06T00:55:32.909Z,100990.38
2018-07-06T00:58:23.137Z,100993.70
2018-07-06T01:01:09.465Z,100998.31
2018-07-06T01:03:55.553Z,100995.11
2018-07-06T01:06:41.926Z,100991.83
2018-07-06T01:09:28.301Z,100991.86
2018-07-06T01:12:20.137Z,100997.84
2018-07-06T01:15:12.021Z,100998.67
2018-07-06T01:17:58.273Z,100995.55
2018-07-06T01:20:44.868Z,101008.27
2018-07-06T01:23:31.257Z,101007.36
2018-07-06T01:26:18.072Z,101005.73
2018-07-06T01:29:04.285Z,101011.73
2018-07-06T01:31:50.592Z,101014.78
2018-07-06T01:34:37.061Z,101018.00
2018-07-06T01:37:23.597Z,101027.14
2018-07-06T01:40:10.133Z,101030.94
2018-07-06T01:42:56.369Z,101028.09
2018-07-06T01:45:42.677Z,101030.22
2018-07-06T01:48:28.996Z,101033.98
2018-07-06T01:51:15.314Z,101032.98
2018-07-06T01:54:01.736Z,101030.48
2018-07-06T01:56:48.190Z,101032.28
2018-07-06T01:59:34.737Z,101030.67
2018-07-06T02:02:20.933Z,101028.04
2018-07-06T02:05:07.401Z,101032.86
2018-07-06T02:07:53.817Z,101037.80
2018-07-06T02:10:40.096Z,101036.09
2018-07-06T02:13:26.489Z,101040.67
2018-07-06T02:16:12.885Z,101037.09
2018-07-06T02:18:59.345Z,101036.28
2018-07-06T02:21:45.616Z,101035.41
2018-07-06T02:24:32.190Z,101033.44
2018-07-06T02:27:18.645Z,101032.90
2018-07-06T02:30:05.057Z,101042.77
2018-07-06T02:32:51.513Z,101040.97
2018-07-06T02:35:37.962Z,101044.02
2018-07-06T02:38:24.093Z,101053.94
2018-07-06T02:41:10.538Z,101056.38
2018-07-06T02:43:56.852Z,101051.53
2018-07-06T02:46:43.139Z,101060.96
2018-07-06T02:49:29.477Z,101063.39
2018-07-06T02:52:15.813Z,101062.88
2018-07-06T02:55:02.324Z,101061.30
2018-07-06T02:57:48.817Z,101065.97
2018-07-06T03:00:35.158Z,101070.42
2018-07-06T03:03:21.437Z,101079.12
2018-07-06T03:06:07.688Z,101077.11
2018-07-06T03:08:53.965Z,101083.84
2018-07-06T03:11:40.267Z,101077.98
2018-07-06T03:14:26.678Z,101084.80
2018-07-06T03:17:12.854Z,101085.65
2018-07-06T03:19:59.201Z,101089.69
2018-07-06T03:22:45.349Z,101093.71
2018-07-06T03:25:31.745Z,101101.31
2018-07-06T03:28:18.014Z,101100.70
2018-07-06T03:31:04.337Z,101099.05
2018-07-06T03:33:50.892Z,101100.52
2018-07-06T03:36:37.168Z,101105.78
2018-07-06T03:39:23.429Z,101105.44
2018-07-06T03:42:09.689Z,101108.53
2018-07-06T03:44:56.005Z,101101.17
2018-07-06T03:47:42.317Z,101100.81
2018-07-06T03:50:28.677Z,101110.80
2018-07-06T03:53:15.105Z,101119.13
2018-07-06T03:56:01.357Z,101118.61
2018-07-06T03:58:47.709Z,101121.23
2018-07-06T04:01:34.194Z,101124.24
2018-07-06T04:04:20.562Z,101128.49
2018-07-06T04:07:06.885Z,101124.76
2018-07-06T04:09:53.196Z,101124.58
2018-07-06T04:12:39.488Z,101127.77
2018-07-06T04:15:25.733Z,101136.30
2018-07-06T04:18:12.234Z,101136.80
2018-07-06T04:20:58.332Z,101137.25
2018-07-06T04:23:44.805Z,101144.28
2018-07-06T04:26:31.187Z,101149.42
2018-07-06T04:29:17.429Z,101151.91
2018-07-06T04:32:03.605Z,101152.33
2018-07-06T04:34:51.073Z,101150.56
2018-07-06T04:37:40.990Z,101153.37
2018-07-06T04:40:27.454Z,101155.90
2018-07-06T04:43:13.636Z,101157.36
2018-07-06T04:46:00.037Z,101156.39
2018-07-06T04:48:46.569Z,101156.37
2018-07-06T04:51:32.838Z,101166.17
2018-07-06T04:54:19.118Z,101168.39
2018-07-06T04:57:05.437Z,101171.98
2018-07-06T04:59:51.814Z,101167.82
2018-07-06T05:02:38.383Z,101171.59
2018-07-06T05:05:24.789Z,101172.80
2018-07-06T05:08:11.174Z,101173.70
2018-07-06T05:10:57.469Z,101181.48
2018-07-06T05:13:44.162Z,101177.98
2018-07-06T05:16:30.555Z,101176.20
2018-07-06T05:19:16.945Z,101177.73
2018-07-06T05:22:03.285Z,101184.75
2018-07-06T05:24:49.593Z,101186.56
2018-07-06T05:27:36.156Z,101196.55
2018-07-06T05:30:22.573Z,101191.66
2018-07-06T05:33:09.069Z,101194.67
2018-07-06T05:35:55.349Z,101199.86
2018-07-06T05:38:41.698Z,101199.06
2018-07-06T05:41:28.161Z,101210.20
2018-07-06T05:44:14.330Z,101217.50
2018-07-06T05:47:00.653Z,101218.09
2018-07-06T05:49:47.134Z,101215.61
2018-07-06T05:52:33.478Z,101221.14
2018-07-06T05:55:19.970Z,101228.75
2018-07-06T05:58:06.509Z,101230.84
2018-07-06T06:00:52.769Z,101225.95
2018-07-06T06:03:39.048Z,101238.73
2018-07-06T06:06:25.358Z,101232.34
2018-07-06T06:08:59.972Z,101235.48
2018-07-06T06:11:29.094Z,101228.93
2018-07-06T06:13:58.209Z,101229.92
2018-07-06T06:16:27.313Z,101236.39
2018-07-06T06:18:56.469Z,101238.09
2018-07-06T06:21:25.604Z,101245.50
2018-07-06T06:23:54.728Z,101249.23
2018-07-06T06:26:26.738Z,101253.61
2018-07-06T06:28:55.865Z,101252.11
2018-07-06T06:31:25.049Z,101255.78
2018-07-06T06:33:54.382Z,101254.13
2018-07-06T06:36:23.970Z,101257.96
2018-07-06T06:38:53.133Z,101253.06
2018-07-06T06:41:22.331Z,101260.34
2018-07-06T06:43:51.677Z,101261.72
2018-07-06T06:46:20.848Z,101273.78
2018-07-06T06:48:50.031Z,101267.28
2018-07-06T06:51:19.164Z,101273.94
2018-07-06T06:53:48.369Z,101268.27
2018-07-06T06:56:23.381Z,101275.91
2018-07-06T06:58:52.705Z,101276.88
2018-07-06T07:01:21.897Z,101274.84
2018-07-06T07:03:51.117Z,101278.97
2018-07-06T07:06:20.322Z,101277.52
2018-07-06T07:08:49.493Z,101275.45
2018-07-06T07:11:18.617Z,101291.94
2018-07-06T07:13:47.864Z,101286.98
2018-07-06T07:16:17.008Z,101287.87
2018-07-06T07:18:46.158Z,101287.33
2018-07-06T07:21:15.337Z,101284.59
2018-07-06T07:23:44.532Z,101289.47
2018-07-06T07:26:13.661Z,101285.84
2018-07-06T07:28:42.892Z,101298.90
2018-07-06T07:31:12.039Z,101290.85
2018-07-06T07:33:41.197Z,101295.59
2018-07-06T07:36:10.341Z,101288.39
2018-07-06T07:38:39.493Z,101293.87
2018-07-06T07:41:08.633Z,101298.62
2018-07-06T07:43:37.750Z,101289.80
2018-07-06T07:46:07.126Z,101297.84
2018-07-06T07:48:36.253Z,101296.26
2018-07-06T07:51:16.577Z,101297.68
2018-07-06T07:54:32.599Z,101295.85
2018-07-06T07:57:02.597Z,101296.45
2018-07-06T07:59:33.311Z,101296.66
2018-07-06T08:02:04.560Z,101303.19
2018-07-06T08:04:33.724Z,101301.27
2018-07-06T08:07:02.971Z,101299.14
2018-07-06T08:09:33.123Z,101304.92
2018-07-06T08:12:03.305Z,101308.31
2018-07-06T08:14:32.538Z,101309.05
2018-07-06T08:17:01.609Z,101310.17
2018-07-06T08:19:30.738Z,101316.17
2018-07-06T08:22:01.030Z,101312.77
2018-07-06T08:24:30.148Z,101322.46
2018-07-06T08:26:59.289Z,101326.27
2018-07-06T08:29:28.461Z,101329.06
2018-07-06T08:31:57.658Z,101328.09
2018-07-06T08:34:38.164Z,101337.49
2018-07-06T08:37:31.854Z,101342.06
2018-07-06T08:40:01.069Z,101343.30
2018-07-06T08:42:31.362Z,101342.90
2018-07-06T08:45:01.045Z,101344.66
2018-07-06T08:47:31.201Z,101342.87
2018-07-06T08:50:01.233Z,101351.48
2018-07-06T08:52:30.429Z,101355.96
2018-07-06T08:54:59.702Z,101346.77
2018-07-06T08:57:29.933Z,101349.72
2018-07-06T09:00:02.432Z,101350.11
2018-07-06T09:02:31.565Z,101358.48
2018-07-06T09:05:01.308Z,101347.03
2018-07-06T09:07:30.776Z,101352.48
2018-07-06T09:10:09.853Z,101358.55
2018-07-06T09:12:39.405Z,101352.13
2018-07-06T09:15:08.834Z,101350.80
2018-07-06T09:17:37.985Z,101356.48
2018-07-06T09:20:07.248Z,101362.69
2018-07-06T09:22:36.281Z,101367.45
2018-07-06T09:25:06.449Z,101368.82
2018-07-06T09:27:35.611Z,101369.31
2018-07-06T09:30:04.801Z,101370.42
2018-07-06T09:32:33.933Z,101369.52
2018-07-06T09:35:03.113Z,101369.63
2018-07-06T09:37:39.790Z,101380.88
2018-07-06T09:40:09.465Z,101383.86
2018-07-06T09:42:38.593Z,101383.29
2018-07-06T09:45:07.753Z,101380.65
2018-07-06T09:47:36.882Z,101380.14
2018-07-06T09:50:06.080Z,101383.48
2018-07-06T09:52:35.208Z,101389.73
2018-07-06T09:55:04.397Z,101380.73
2018-07-06T09:57:33.501Z,101391.56
2018-07-06T10:00:02.718Z,101382.04
2018-07-06T10:02:31.839Z,101376.53
2018-07-06T10:05:01.046Z,101386.05
2018-07-06T10:07:31.335Z,101380.91
2018-07-06T10:10:00.453Z,101379.28
2018-07-06T10:12:29.587Z,101377.97
2018-07-06T10:14:58.697Z,101372.41
2018-07-06T10:17:27.813Z,101375.31
2018-07-06T10:19:56.934Z,101376.43
2018-07-06T10:22:26.026Z,101372.05
2018-07-06T10:24:55.149Z,101377.62
2018-07-06T10:27:32.054Z,101371.91
2018-07-06T10:30:06.673Z,101371.30
2018-07-06T10:32:35.782Z,101370.86
2018-07-06T10:35:05.040Z,101373.56
2018-07-06T10:37:34.155Z,101375.30
2018-07-06T10:40:03.456Z,101375.55
2018-07-06T10:42:32.465Z,101377.64
2018-07-06T10:45:01.585Z,101369.72
2018-07-06T10:47:30.753Z,101380.70
2018-07-06T10:49:59.875Z,101376.30
2018-07-06T10:52:29.022Z,101384.73
2018-07-06T10:54:58.189Z,101383.38
2018-07-06T10:57:27.349Z,101373.57
2018-07-06T10:59:56.509Z,101380.78
2018-07-06T11:02:25.652Z,101382.66
2018-07-06T11:04:54.883Z,101389.55
2018-07-06T11:07:23.941Z,101379.69
2018-07-06T11:09:53.088Z,101378.30
2018-07-06T11:12:22.218Z,101374.05
2018-07-06T11:14:51.337Z,101378.43
2018-07-06T11:17:20.558Z,101379.37
2018-07-06T11:19:50.496Z,101372.31
2018-07-06T11:22:19.662Z,101369.53
2018-07-06T11:24:48.865Z,101367.83
2018-07-06T11:27:17.962Z,101369.14
2018-07-06T11:29:47.092Z,101362.42
2018-07-06T11:32:16.235Z,101366.75
2018-07-06T11:34:45.341Z,101362.02
2018-07-06T11:37:14.501Z,101366.09
2018-07-06T11:39:43.629Z,101362.40
2018-07-06T11:42:12.742Z,101359.84
2018-07-06T11:44:41.901Z,101364.63
2018-07-06T11:47:12.122Z,101359.63
2018-07-06T11:49:41.249Z,101358.83
2018-07-06T11:52:10.409Z,101359.92
2018-07-06T11:54:39.513Z,101362.80
2018-07-06T11:57:08.733Z,101361.08
2018-07-06T11:59:37.833Z,101365.27
2018-07-06T12:02:06.964Z,101357.60
2018-07-06T12:04:36.208Z,101362.97
2018-07-06T12:07:05.214Z,101357.09
2018-07-06T12:09:34.332Z,101348.06
2018-07-06T12:12:03.461Z,101355.26
2018-07-06T12:14:32.561Z,101351.10
2018-07-06T12:17:01.702Z,101348.20
2018-07-06T12:19:30.802Z,101348.36
2018-07-06T12:22:03.451Z,101343.38
2018-07-06T12:24:32.621Z,101342.77
2018-07-06T12:27:02.299Z,101347.73
2018-07-06T12:29:31.390Z,101354.01
2018-07-06T12:32:00.493Z,101343.52
2018-07-06T12:34:31.737Z,101354.17
2018-07-06T12:37:00.873Z,101345.74
2018-07-06T12:39:29.953Z,101341.75
2018-07-06T12:41:59.059Z,101347.86
2018-07-06T12:44:28.219Z,101346.89
2018-07-06T12:46:57.359Z,101346.02
2018-07-06T12:49:26.489Z,101344.73
2018-07-06T12:51:55.605Z,101350.98
2018-07-06T12:54:25.039Z,101348.20
2018-07-06T12:56:54.261Z,101347.03
2018-07-06T12:59:23.461Z,101338.53
2018-07-06T13:01:52.697Z,101342.55
2018-07-06T13:04:21.893Z,101344.50
2018-07-06T13:06:51.057Z,101345.86
2018-07-06T13:09:20.297Z,101346.96
2018-07-06T13:11:49.490Z,101344.27
2018-07-06T13:14:18.785Z,101348.89
2018-07-06T13:16:48.011Z,101345.20
2018-07-06T13:19:18.122Z,101344.53
2018-07-06T13:21:47.805Z,101350.59
2018-07-06T13:24:17.026Z,101342.63
2018-07-06T13:26:51.352Z,101348.90
2018-07-06T13:29:20.607Z,101349.54
2018-07-06T13:31:49.834Z,101345.59
2018-07-06T13:34:19.143Z,101340.98
2018-07-06T13:36:48.303Z,101353.36
2018-07-06T13:39:17.458Z,101352.81
2018-07-06T13:41:46.613Z,101344.88
2018-07-06T13:44:16.899Z,101339.57
2018-07-06T13:46:46.058Z,101338.29
2018-07-06T13:49:15.197Z,101332.95
2018-07-06T13:51:44.330Z,101332.55
2018-07-06T13:54:13.481Z,101335.86
2018-07-06T13:56:42.618Z,101344.09
2018-07-06T13:59:12.221Z,101343.70
2018-07-06T14:01:51.869Z,101341.19
2018-07-06T14:04:21.022Z,101349.70
2018-07-06T14:06:50.249Z,101337.88
2018-07-06T14:09:19.491Z,101343.41
2018-07-06T14:11:48.679Z,101335.42
2018-07-06T14:14:17.813Z,101336.77
2018-07-06T14:16:46.926Z,101336.95
2018-07-06T14:19:16.057Z,101337.16
2018-07-06T14:21:45.217Z,101341.77
2018-07-06T14:24:14.461Z,101337.16
2018-07-06T14:26:43.571Z,101339.80
2018-07-06T14:29:12.746Z,101323.75
2018-07-06T14:31:41.845Z,101328.75
2018-07-06T14:34:11.025Z,101326.52
2018-07-06T14:36:40.157Z,101322.06
2018-07-06T14:39:09.549Z,101331.62
2018-07-06T14:41:38.900Z,101324.52
2018-07-06T14:44:08.245Z,101328.48
2018-07-06T14:46:37.493Z,101324.44
2018-07-06T14:49:06.657Z,101323.39
2018-07-06T14:51:35.910Z,101331.05
2018-07-06T14:54:05.061Z,101328.56
2018-07-06T14:56:34.189Z,101325.72
2018-07-06T14:59:03.413Z,101318.59
2018-07-06T15:01:32.565Z,101314.15
2018-07-06T15:04:02.037Z,101320.56
2018-07-06T15:06:31.316Z,101320.17
2018-07-06T15:09:00.493Z,101316.57
2018-07-06T15:11:29.649Z,101313.17
2018-07-06T15:13:58.768Z,101317.56
2018-07-06T15:16:27.905Z,101308.38
2018-07-06T15:18:57.037Z,101323.17
2018-07-06T15:21:26.161Z,101315.25
2018-07-06T15:23:55.285Z,101317.53
2018-07-06T15:26:24.406Z,101322.83
2018-07-06T15:28:53.737Z,101327.09
2018-07-06T15:31:22.952Z,101330.89
2018-07-06T15:33:52.086Z,101334.17
2018-07-06T15:36:21.302Z,101326.05
2018-07-06T15:38:50.567Z,101339.41
2018-07-06T15:41:21.030Z,101338.41
2018-07-06T15:43:51.005Z,101339.34
2018-07-06T15:46:20.398Z,101341.89
2018-07-06T15:48:49.506Z,101341.48
2018-07-06T15:51:18.654Z,101345.46
2018-07-06T15:53:47.769Z,101342.43
2018-07-06T15:56:16.918Z,101347.35
2018-07-06T15:58:46.041Z,101345.73
2018-07-06T16:01:15.205Z,101345.77
2018-07-06T16:03:44.301Z,101354.88
2018-07-06T16:06:13.438Z,101349.24
2018-07-06T16:08:43.679Z,101354.33
2018-07-06T16:11:12.795Z,101357.34
2018-07-06T16:13:41.890Z,101355.09
2018-07-06T16:16:10.978Z,101355.55
2018-07-06T16:18:40.077Z,101355.70
2018-07-06T16:21:09.189Z,101352.96
2018-07-06T16:23:38.373Z,101353.05
2018-07-06T16:26:07.489Z,101354.29
2018-07-06T16:28:36.605Z,101350.74
2018-07-06T16:31:05.810Z,101350.02
2018-07-06T16:33:34.910Z,101355.98
2018-07-06T16:36:04.042Z,101350.64
2018-07-06T16:38:33.200Z,101350.44
2018-07-06T16:41:02.472Z,101341.87
2018-07-06T16:43:31.593Z,101335.13
2018-07-06T16:46:00.838Z,101338.28
2018-07-06T16:48:29.921Z,101336.95
2018-07-06T16:50:59.526Z,101339.17
2018-07-06T16:53:28.653Z,101333.88
2018-07-06T16:55:57.785Z,101337.15
2018-07-06T16:58:26.908Z,101335.98
2018-07-06T17:00:56.043Z,101329.23
2018-07-06T17:03:25.145Z,101332.58
2018-07-06T17:05:54.293Z,101334.31
2018-07-06T17:08:23.410Z,101336.50
2018-07-06T17:10:53.058Z,101327.14
2018-07-06T17:13:23.245Z,101334.67
2018-07-06T17:15:52.481Z,101324.97
2018-07-06T17:18:22.078Z,101322.92
2018-07-06T17:20:51.252Z,101329.16
2018-07-06T17:23:20.454Z,101323.94
2018-07-06T17:25:49.748Z,101324.73
2018-07-06T17:28:18.969Z,101319.22
2018-07-06T17:30:48.101Z,101326.63
2018-07-06T17:33:17.186Z,101321.70
2018-07-06T17:35:46.313Z,101322.24
2018-07-06T17:38:15.427Z,101322.11
2018-07-06T17:40:44.609Z,101329.63
2018-07-06T17:43:13.682Z,101325.91
2018-07-06T17:45:42.807Z,101325.64
2018-07-06T17:48:11.938Z,101320.45
2018-07-06T17:50:41.013Z,101323.20
2018-07-06T17:53:10.137Z,101323.72
2018-07-06T17:55:39.253Z,101323.20
2018-07-06T17:58:08.345Z,101322.74
2018-07-06T18:00:37.570Z,101329.00
2018-07-06T18:03:06.641Z,101332.18
2018-07-06T18:05:35.849Z,101332.80
2018-07-06T18:08:05.050Z,101329.86
2018-07-06T18:10:34.149Z,101332.09
2018-07-06T18:13:03.269Z,101321.10
2018-07-06T18:15:32.425Z,101325.02
2018-07-06T18:18:01.533Z,101327.03
2018-07-06T18:20:30.790Z,101325.72
2018-07-06T18:23:00.015Z,101322.05
2018-07-06T18:25:29.105Z,101329.63
2018-07-06T18:27:58.181Z,101329.93
2018-07-06T18:30:27.336Z,101324.31
2018-07-06T18:32:56.417Z,101326.97
2018-07-06T18:35:25.573Z,101331.58
2018-07-06T18:37:54.677Z,101325.84
2018-07-06T18:40:23.858Z,101333.18
2018-07-06T18:42:52.961Z,101329.66
2018-07-06T18:45:22.068Z,101329.37
2018-07-06T18:47:51.447Z,101331.23
2018-07-06T18:50:20.629Z,101337.55
2018-07-06T18:52:49.808Z,101338.57
2018-07-06T18:55:18.977Z,101337.14
2018-07-06T18:57:48.097Z,101337.55
2018-07-06T19:00:17.196Z,101335.20
2018-07-06T19:02:46.314Z,101335.61
2018-07-06T19:05:15.405Z,101338.27
2018-07-06T19:07:44.519Z,101341.35
2018-07-06T19:10:13.637Z,101344.41
2018-07-06T19:12:42.845Z,101352.44
2018-07-06T19:15:12.070Z,101356.52
2018-07-06T19:17:41.185Z,101354.11
2018-07-06T19:20:10.517Z,101360.41
2018-07-06T19:22:39.670Z,101362.09
2018-07-06T19:25:09.017Z,101367.55
2018-07-06T19:27:38.446Z,101373.70
2018-07-06T19:30:07.830Z,101373.55
2018-07-06T19:32:36.957Z,101378.39
2018-07-06T19:35:06.068Z,101378.70
2018-07-06T19:37:35.177Z,101378.61
2018-07-06T19:40:04.297Z,101384.42
2018-07-06T19:42:33.417Z,101386.30
2018-07-06T19:45:02.528Z,101395.30
2018-07-06T19:47:36.991Z,101396.36
2018-07-06T19:50:06.086Z,101403.20
2018-07-06T19:52:35.337Z,101410.08
2018-07-06T19:55:04.467Z,101407.13
2018-07-06T19:57:33.612Z,101415.03
2018-07-06T20:00:02.671Z,101411.06
2018-07-06T20:02:31.757Z,101418.09
2018-07-06T20:05:00.865Z,101420.39
2018-07-06T20:07:29.973Z,101420.41
2018-07-06T20:09:59.083Z,101422.88
2018-07-06T20:12:28.225Z,101427.41
2018-07-06T20:14:57.333Z,101431.01
2018-07-06T20:17:26.437Z,101427.31
2018-07-06T20:19:55.527Z,101434.22
2018-07-06T20:22:24.613Z,101438.06
2018-07-06T20:24:53.950Z,101444.66
2018-07-06T20:27:23.053Z,101440.83
2018-07-06T20:29:52.133Z,101444.88
2018-07-06T20:32:21.278Z,101448.18
2018-07-06T20:34:50.411Z,101450.70
2018-07-06T20:37:19.548Z,101451.24
2018-07-06T20:39:49.418Z,101454.55
2018-07-06T20:42:18.529Z,101457.58
2018-07-06T20:44:47.635Z,101458.45
2018-07-06T20:47:16.701Z,101456.97
2018-07-06T20:49:45.865Z,101455.45
2018-07-06T20:52:14.965Z,101451.83
2018-07-06T20:54:44.393Z,101456.23
2018-07-06T20:57:13.493Z,101450.63
2018-07-06T20:59:42.741Z,101455.14
2018-07-06T21:02:13.293Z,101450.33
2018-07-06T21:04:42.579Z,101452.54
2018-07-06T21:07:11.879Z,101458.20
2018-07-06T21:09:41.047Z,101460.84
2018-07-06T21:12:10.180Z,101463.28
2018-07-06T21:14:39.269Z,101463.41
2018-07-06T21:17:08.409Z,101460.68
2018-07-06T21:19:37.523Z,101470.09
2018-07-06T21:22:07.557Z,101472.86
2018-07-06T21:24:36.997Z,101468.22
2018-07-06T21:27:06.105Z,101471.98
2018-07-06T21:29:35.225Z,101473.27
2018-07-06T21:32:04.342Z,101476.05
2018-07-06T21:34:33.469Z,101477.07
2018-07-06T21:37:02.597Z,101473.63
2018-07-06T21:39:31.705Z,101474.55
2018-07-06T21:42:00.817Z,101471.84
2018-07-06T21:44:29.909Z,101474.91
2018-07-06T21:46:59.024Z,101467.71
2018-07-06T21:49:28.153Z,101470.23
2018-07-06T21:51:57.253Z,101475.92
2018-07-06T21:54:26.329Z,101478.21
2018-07-06T21:56:55.436Z,101477.20
2018-07-06T21:59:24.533Z,101478.77
2018-07-06T22:01:53.672Z,101479.23
2018-07-06T22:04:22.757Z,101488.38
2018-07-06T22:06:51.877Z,101488.09
2018-07-06T22:09:20.974Z,101484.12
2018-07-06T22:11:50.145Z,101486.27
2018-07-06T22:14:19.253Z,101487.52
2018-07-06T22:16:48.337Z,101489.63
2018-07-06T22:19:17.453Z,101499.08
2018-07-06T22:21:46.566Z,101495.92
2018-07-06T22:24:15.667Z,101506.03
2018-07-06T22:26:44.742Z,101496.27
2018-07-06T22:29:13.983Z,101496.17
2018-07-06T22:31:48.611Z,101502.97
2018-07-06T22:34:17.700Z,101501.52
2018-07-06T22:36:48.146Z,101507.52
2018-07-06T22:39:17.245Z,101498.22
2018-07-06T22:41:46.402Z,101502.20
2018-07-06T22:44:15.928Z,101498.28
2018-07-06T22:46:45.019Z,101506.07
2018-07-06T22:49:14.121Z,101493.12
2018-07-06T22:51:43.224Z,101499.77
2018-07-06T22:54:12.312Z,101500.16
2018-07-06T22:56:41.401Z,101498.66
2018-07-06T22:59:10.485Z,101498.80
2018-07-06T23:01:39.596Z,101504.98
2018-07-06T23:04:08.713Z,101496.02
2018-07-06T23:06:37.799Z,101496.84
2018-07-06T23:09:07.166Z,101491.06
2018-07-06T23:11:36.313Z,101495.38
2018-07-06T23:14:05.417Z,101505.59
2018-07-06T23:16:34.513Z,101501.58
2018-07-06T23:19:03.618Z,101503.11
2018-07-06T23:21:32.693Z,101494.18
2018-07-06T23:24:01.809Z,101496.14
2018-07-06T23:26:30.923Z,101494.93
2018-07-06T23:29:00.062Z,101493.48
2018-07-06T23:31:29.153Z,101499.13
2018-07-06T23:33:58.325Z,101502.78
2018-07-06T23:36:27.431Z,101502.02
2018-07-06T23:38:56.553Z,101501.28
2018-07-06T23:41:25.628Z,101505.19
2018-07-06T23:43:54.714Z,101506.62
2018-07-06T23:46:23.810Z,101507.68
2018-07-06T23:48:52.925Z,101506.84
2018-07-06T23:51:22.009Z,101503.84
2018-07-06T23:53:51.102Z,101503.44
2018-07-06T23:56:20.205Z,101508.30
2018-07-06T23:58:49.313Z,101503.53
